Nearby METAR Reports

 

KLXT - Lees Summit Muni, Missouri, USA
Distance from station: E 5mi, 9km
Updated: Sun, 23-Sep-2018 6:53pm CDT
Clear
Clear
 Wind from ESE
Wind: ESE 7 mph , 11 km/h
Temperature: 73°F , 23°C
Dew Point: 55°F , 13°C
Humidity: 53%
Barometer: 29.98 inHg , 1015.2 hPa
Clouds: Clear
Visibility: 10 miles , 16 km
2018/09/23 23:53 KLXT 232353Z AUTO 11006KT 10SM CLR 23/13 A2998 RMK AO2 SLP147 T02280133 10261 20228 58006
KMKC - Kansas City/Dntn, Missouri, USA
Distance from station: NW 12mi, 19km
Updated: Sun, 23-Sep-2018 6:54pm CDT
Clear
Clear
 Wind from ESE
Wind: ESE 7 mph , 11 km/h
Temperature: 79°F , 26°C
Dew Point: 52°F , 11°C
Humidity: 39%
Barometer: 29.96 inHg , 1014.6 hPa
Clouds: Clear
Visibility: 10 miles , 16 km
2018/09/23 23:54 KMKC 232354Z 12006KT 10SM CLR 26/11 A2996 RMK AO2 SLP139 T02560111 10278 20244 56007
 
KIXD - Olathe/Industria, Kansas, USA
Distance from station: WSW 25mi, 41km
Updated: Sun, 23-Sep-2018 6:53pm CDT
Clear
Clear
 Wind from SE
Wind: SE 5 mph , 7 km/h
Temperature: 73°F , 23°C
Dew Point: 55°F , 13°C
Humidity: 53%
Barometer: 29.98 inHg , 1015.2 hPa
Clouds: Clear
Visibility: 10 miles , 16 km
2018/09/23 23:53 KIXD 232353Z 13004KT 10SM CLR 23/13 A2998 RMK AO2 SLP145 T02330133 10261 20228 56006
KMCI - Kansas City/Intl, Missouri, USA
Distance from station: NW 26mi, 42km
Updated: Sun, 23-Sep-2018 6:53pm CDT
Clear
Clear
 Wind from SE
Wind: SE 8 mph , 13 km/h
Temperature: 73°F , 23°C
Dew Point: 54°F , 12°C
Humidity: 50%
Barometer: 29.97 inHg , 1014.9 hPa
Clouds: Clear
Visibility: 10 miles , 16 km
2018/09/23 23:53 KMCI 232353Z 13007KT 10SM CLR 23/12 A2997 RMK AO2 SLP143 T02280117 10261 20228 56008
 
KRCM - Warrensburg Skyh, Missouri, USA
Distance from station: ESE 38mi, 62km
Updated: Sun, 23-Sep-2018 7:55pm CDT
Clear
Clear
 Wind from SE
Wind: SE 5 mph , 7 km/h
Temperature: 68°F , 20°C
Dew Point: 59°F , 15°C
Humidity: 73%
Barometer: 29.98 inHg , 1015.2 hPa
Clouds: Clear
Visibility: 10 miles , 16 km
2018/09/24 00:55 KRCM 240055Z AUTO 13004KT 10SM CLR 20/15 A2998 RMK AO2
KLWC - Lawrence, Kansas, USA
Distance from station: W 40mi, 65km
Updated: Sun, 23-Sep-2018 6:52pm CDT
Clear
Clear
 Wind from SE
Wind: SE 6 mph , 9 km/h
Temperature: 73°F , 23°C
Dew Point: 55°F , 13°C
Humidity: 53%
Barometer: 29.96 inHg , 1014.6 hPa
Clouds: Clear
Visibility: 10 miles , 16 km
2018/09/23 23:52 KLWC 232352Z AUTO 13005KT 10SM CLR 23/13 A2996 RMK AO2 SLP141 T02330133 10267 20233 56009
 
KSZL - Whiteman Afb, Missouri, USA
Distance from station: ESE 53mi, 86km
Updated: Sun, 23-Sep-2018 6:56pm CDT
Mostly cloudy
Mostly cloudy
 Wind from S
Wind: S 6 mph , 9 km/h
Temperature: 73°F , 23°C
Dew Point: 63°F , 17°C
Humidity: 69%
Barometer: 29.95 inHg , 1014.2 hPa
Clouds: Mostly cloudy
Visibility: 10 miles , 16 km
Cloud details: Mostly cloudy 4400 ft
2018/09/23 23:56 KSZL 232356Z AUTO 19005KT 10SM BKN044 23/17 A2995 RMK AO2 SLP142 T02300168 10260 20230 55002 $
KSTJ - St. Joseph, Missouri, USA
Distance from station: NNW 59mi, 95km
Updated: Sun, 23-Sep-2018 6:53pm CDT
Clear
Clear
 Wind from SE
Wind: SE 7 mph , 11 km/h
Temperature: 73°F , 23°C
Dew Point: 55°F , 13°C
Humidity: 53%
Barometer: 29.96 inHg , 1014.6 hPa
Clouds: Clear
Visibility: 10 miles , 16 km
2018/09/23 23:53 KSTJ 232353Z AUTO 13006KT 10SM CLR 23/13 A2996 RMK AO2 SLP143 T02280128 10261 20228 56010
 
KGLY - Clinton, Missouri, USA
Distance from station: SE 61mi, 98km
Updated: Sun, 23-Sep-2018 7:15pm CDT
Overcast
Overcast
 Wind from calm
Wind: Calm
Temperature: 72°F , 22°C
Dew Point: 63°F , 17°C
Humidity: 73%
Barometer: 29.99 inHg , 1015.6 hPa
Clouds: Overcast
Visibility: 10 miles , 16 km
Cloud details: Overcast 3700 ft
2018/09/24 00:15 KGLY 240015Z AUTO 00000KT 10SM OVC037 22/17 A2999 RMK AO2
KFOE - Topeka/Forbes, Kansas, USA
Distance from station: W 64mi, 103km
Updated: Sun, 23-Sep-2018 6:53pm CDT
Clear
Clear
 Wind from SE
Wind: SE 7 mph , 11 km/h
Temperature: 73°F , 23°C
Dew Point: 55°F , 13°C
Humidity: 53%
Barometer: 29.95 inHg , 1014.2 hPa
Clouds: Clear
Visibility: 10 miles , 16 km
2018/09/23 23:53 KFOE 232353Z 13006KT 10SM CLR 23/13 A2995 RMK AO2 SLP139 T02330133 10272 20233 56010
 
KDMO - Sedalia, Missouri, USA
Distance from station: ESE 72mi, 116km
Updated: Sun, 23-Sep-2018 6:53pm CDT
Clear
Clear
 Wind from S
Wind: S 6 mph , 9 km/h
Temperature: 70°F , 21°C
Dew Point: 61°F , 16°C
Humidity: 73%
Barometer: 30.00 inHg , 1015.9 hPa
Clouds: Clear
Visibility: 10 miles , 16 km
2018/09/23 23:53 KDMO 232353Z AUTO 17005KT 10SM CLR 21/16 A3000 RMK AO2 SLP156 T02060161 10250 20206 55002
KCDJ - Chillicothe, Missouri, USA
Distance from station: NE 74mi, 120km
Updated: Sun, 23-Sep-2018 6:52pm CDT

 Wind from ESE
Wind: ESE 3 mph , 6 km/h
Temperature: 73°F , 23°C
Dew Point: 55°F , 13°C
Humidity: 53%
Barometer: 30.00 inHg , 1015.9 hPa
2018/09/23 23:52 KCDJ 232352Z AUTO 12003KT 23/13 A3000 RMK AO1 SLP154 T02280133 10256 20228 56006
 
KFNB - Falls City/Brenn, Nebraska, USA
Distance from station: NW 96mi, 154km
Updated: Sun, 23-Sep-2018 6:53pm CDT
Clear
Clear
 Wind from SE
Wind: SE 8 mph , 13 km/h
Temperature: 73°F , 23°C
Dew Point: 52°F , 11°C
Humidity: 47%
Barometer: 29.94 inHg , 1013.9 hPa
Clouds: Clear
Visibility: 10 miles , 16 km
2018/09/23 23:53 KFNB 232353Z AUTO 14007KT 10SM CLR 23/11 A2994 RMK AO2 SLP136 T02330106 10272 20233 56010
KVER - Boonville, Missouri, USA
Distance from station: E 96mi, 154km
Updated: Sun, 23-Sep-2018 7:15pm CDT
Clear
Clear
 Wind from E
Wind: E 3 mph , 6 km/h
Temperature: 72°F , 22°C
Dew Point: 57°F , 14°C
Humidity: 61%
Barometer: 29.99 inHg , 1015.6 hPa
Clouds: Clear
Visibility: 10 miles , 16 km
2018/09/24 00:15 KVER 240015Z AUTO 09003KT 10SM CLR 22/14 A2999 RMK AO2 T02230139